sensor_id;sensor_type;location;lat;lon;timestamp;P1;durP1;ratioP1;P2;durP2;ratioP2
76636;SDS011;65532;52.124;5.480;2023-02-11T00:01:04;8.45;;;1.55;;
76636;SDS011;65532;52.124;5.480;2023-02-11T00:03:31;4.45;;;1.27;;
76636;SDS011;65532;52.124;5.480;2023-02-11T00:06:02;6.30;;;1.17;;
76636;SDS011;65532;52.124;5.480;2023-02-11T00:08:31;13.70;;;2.15;;
76636;SDS011;65532;52.124;5.480;2023-02-11T00:10:57;8.70;;;2.10;;
76636;SDS011;65532;52.124;5.480;2023-02-11T00:13:24;9.57;;;2.15;;
76636;SDS011;65532;52.124;5.480;2023-02-11T00:15:51;8.57;;;1.15;;
76636;SDS011;65532;52.124;5.480;2023-02-11T00:18:18;13.13;;;2.92;;
76636;SDS011;65532;52.124;5.480;2023-02-11T00:20:45;4.63;;;0.95;;
76636;SDS011;65532;52.124;5.480;2023-02-11T00:23:11;10.90;;;2.08;;
76636;SDS011;65532;52.124;5.480;2023-02-11T00:25:39;11.13;;;1.60;;
76636;SDS011;65532;52.124;5.480;2023-02-11T00:28:07;4.88;;;3.60;;
76636;SDS011;65532;52.124;5.480;2023-02-11T00:30:34;7.82;;;1.50;;
76636;SDS011;65532;52.124;5.480;2023-02-11T00:33:01;4.15;;;0.98;;
76636;SDS011;65532;52.124;5.480;2023-02-11T00:35:30;7.93;;;1.83;;
76636;SDS011;65532;52.124;5.480;2023-02-11T00:37:56;12.43;;;1.88;;
76636;SDS011;65532;52.124;5.480;2023-02-11T00:40:23;11.27;;;2.83;;
76636;SDS011;65532;52.124;5.480;2023-02-11T00:42:49;7.28;;;1.40;;
76636;SDS011;65532;52.124;5.480;2023-02-11T00:45:16;9.48;;;1.38;;
76636;SDS011;65532;52.124;5.480;2023-02-11T00:47:42;14.77;;;2.40;;
76636;SDS011;65532;52.124;5.480;2023-02-11T00:50:09;8.25;;;3.75;;
76636;SDS011;65532;52.124;5.480;2023-02-11T00:52:35;7.75;;;1.98;;
76636;SDS011;65532;52.124;5.480;2023-02-11T00:55:02;7.75;;;2.28;;
76636;SDS011;65532;52.124;5.480;2023-02-11T00:57:30;9.57;;;1.55;;
76636;SDS011;65532;52.124;5.480;2023-02-11T00:59:56;8.23;;;2.47;;
76636;SDS011;65532;52.124;5.480;2023-02-11T01:02:23;6.45;;;1.10;;
76636;SDS011;65532;52.124;5.480;2023-02-11T01:04:49;8.88;;;1.73;;
76636;SDS011;65532;52.124;5.480;2023-02-11T01:07:16;11.95;;;2.40;;
76636;SDS011;65532;52.124;5.480;2023-02-11T01:09:42;8.25;;;3.30;;
76636;SDS011;65532;52.124;5.480;2023-02-11T01:12:08;15.27;;;1.80;;
76636;SDS011;65532;52.124;5.480;2023-02-11T01:14:35;8.23;;;1.60;;
76636;SDS011;65532;52.124;5.480;2023-02-11T01:17:03;7.43;;;1.35;;
76636;SDS011;65532;52.124;5.480;2023-02-11T01:19:30;9.75;;;2.85;;
76636;SDS011;65532;52.124;5.480;2023-02-11T01:21:57;9.55;;;2.25;;
76636;SDS011;65532;52.124;5.480;2023-02-11T01:24:23;11.65;;;2.47;;
76636;SDS011;65532;52.124;5.480;2023-02-11T01:26:50;5.57;;;2.33;;
76636;SDS011;65532;52.124;5.480;2023-02-11T01:29:16;5.28;;;2.17;;
76636;SDS011;65532;52.124;5.480;2023-02-11T01:31:43;11.27;;;1.60;;
76636;SDS011;65532;52.124;5.480;2023-02-11T01:34:09;11.85;;;1.40;;
76636;SDS011;65532;52.124;5.480;2023-02-11T01:36:36;10.25;;;2.65;;
76636;SDS011;65532;52.124;5.480;2023-02-11T01:39:02;11.48;;;3.20;;
76636;SDS011;65532;52.124;5.480;2023-02-11T01:41:29;9.98;;;1.67;;
76636;SDS011;65532;52.124;5.480;2023-02-11T01:43:56;7.30;;;2.65;;
76636;SDS011;65532;52.124;5.480;2023-02-11T01:46:30;9.15;;;1.92;;
76636;SDS011;65532;52.124;5.480;2023-02-11T01:49:06;9.50;;;2.70;;
76636;SDS011;65532;52.124;5.480;2023-02-11T01:51:57;6.93;;;1.73;;
76636;SDS011;65532;52.124;5.480;2023-02-11T01:54:37;11.07;;;2.25;;
76636;SDS011;65532;52.124;5.480;2023-02-11T01:57:28;6.43;;;2.72;;
76636;SDS011;65532;52.124;5.480;2023-02-11T02:02:57;18.58;;;3.00;;
76636;SDS011;65532;52.124;5.480;2023-02-11T02:05:45;6.57;;;1.48;;
76636;SDS011;65532;52.124;5.480;2023-02-11T02:11:00;8.30;;;3.08;;
76636;SDS011;65532;52.124;5.480;2023-02-11T02:13:29;9.20;;;2.17;;
76636;SDS011;65532;52.124;5.480;2023-02-11T02:16:01;7.40;;;2.47;;
76636;SDS011;65532;52.124;5.480;2023-02-11T02:36:23;8.55;;;1.98;;
76636;SDS011;65532;52.124;5.480;2023-02-11T02:39:00;8.48;;;2.35;;
76636;SDS011;65532;52.124;5.480;2023-02-11T02:41:31;7.72;;;2.05;;
76636;SDS011;65532;52.124;5.480;2023-02-11T02:44:00;4.13;;;1.27;;
76636;SDS011;65532;52.124;5.480;2023-02-11T02:46:28;9.75;;;1.73;;
76636;SDS011;65532;52.124;5.480;2023-02-11T02:48:57;14.98;;;3.78;;
76636;SDS011;65532;52.124;5.480;2023-02-11T03:00:00;9.23;;;2.25;;
76636;SDS011;65532;52.124;5.480;2023-02-11T03:08:16;15.60;;;3.90;;
76636;SDS011;65532;52.124;5.480;2023-02-11T03:10:48;16.27;;;3.30;;
76636;SDS011;65532;52.124;5.480;2023-02-11T03:13:16;8.63;;;1.88;;
76636;SDS011;65532;52.124;5.480;2023-02-11T03:18:18;10.43;;;3.47;;
76636;SDS011;65532;52.124;5.480;2023-02-11T03:20:49;9.65;;;2.33;;
76636;SDS011;65532;52.124;5.480;2023-02-11T03:23:28;8.32;;;2.35;;
76636;SDS011;65532;52.124;5.480;2023-02-11T03:26:01;13.45;;;2.33;;
76636;SDS011;65532;52.124;5.480;2023-02-11T03:28:42;12.93;;;2.70;;
76636;SDS011;65532;52.124;5.480;2023-02-11T03:34:14;12.73;;;3.38;;
76636;SDS011;65532;52.124;5.480;2023-02-11T03:39:35;5.95;;;1.92;;
76636;SDS011;65532;52.124;5.480;2023-02-11T03:42:05;6.07;;;2.97;;
76636;SDS011;65532;52.124;5.480;2023-02-11T03:44:45;12.98;;;3.35;;
76636;SDS011;65532;52.124;5.480;2023-02-11T03:47:18;9.70;;;2.97;;
76636;SDS011;65532;52.124;5.480;2023-02-11T03:49:49;11.05;;;3.20;;
76636;SDS011;65532;52.124;5.480;2023-02-11T03:52:18;10.73;;;4.55;;
76636;SDS011;65532;52.124;5.480;2023-02-11T03:54:48;8.80;;;4.22;;
76636;SDS011;65532;52.124;5.480;2023-02-11T03:57:18;11.75;;;3.88;;
76636;SDS011;65532;52.124;5.480;2023-02-11T03:59:48;12.63;;;3.38;;
76636;SDS011;65532;52.124;5.480;2023-02-11T04:02:24;12.88;;;2.97;;
76636;SDS011;65532;52.124;5.480;2023-02-11T04:04:54;10.30;;;2.30;;
76636;SDS011;65532;52.124;5.480;2023-02-11T04:07:21;17.58;;;4.75;;
76636;SDS011;65532;52.124;5.480;2023-02-11T04:09:47;10.85;;;5.55;;
76636;SDS011;65532;52.124;5.480;2023-02-11T04:12:13;10.65;;;4.70;;
76636;SDS011;65532;52.124;5.480;2023-02-11T04:14:40;15.98;;;4.00;;
76636;SDS011;65532;52.124;5.480;2023-02-11T04:17:06;14.93;;;4.45;;
76636;SDS011;65532;52.124;5.480;2023-02-11T04:19:33;14.45;;;4.63;;
76636;SDS011;65532;52.124;5.480;2023-02-11T04:22:00;7.25;;;3.13;;
76636;SDS011;65532;52.124;5.480;2023-02-11T04:24:27;10.40;;;3.67;;
76636;SDS011;65532;52.124;5.480;2023-02-11T04:26:54;13.05;;;4.30;;
76636;SDS011;65532;52.124;5.480;2023-02-11T04:29:20;13.63;;;3.72;;
76636;SDS011;65532;52.124;5.480;2023-02-11T04:31:47;10.77;;;3.83;;
76636;SDS011;65532;52.124;5.480;2023-02-11T04:34:14;8.90;;;2.97;;
76636;SDS011;65532;52.124;5.480;2023-02-11T04:36:41;8.55;;;2.95;;
76636;SDS011;65532;52.124;5.480;2023-02-11T04:39:07;14.00;;;5.78;;
76636;SDS011;65532;52.124;5.480;2023-02-11T04:41:33;17.08;;;4.22;;
76636;SDS011;65532;52.124;5.480;2023-02-11T04:44:00;16.55;;;5.90;;
76636;SDS011;65532;52.124;5.480;2023-02-11T04:46:26;10.85;;;5.80;;
76636;SDS011;65532;52.124;5.480;2023-02-11T04:48:53;13.52;;;6.10;;
76636;SDS011;65532;52.124;5.480;2023-02-11T04:51:19;13.82;;;4.70;;
76636;SDS011;65532;52.124;5.480;2023-02-11T04:53:46;17.85;;;6.63;;
76636;SDS011;65532;52.124;5.480;2023-02-11T04:56:12;12.48;;;5.40;;
76636;SDS011;65532;52.124;5.480;2023-02-11T04:58:39;17.05;;;6.10;;
76636;SDS011;65532;52.124;5.480;2023-02-11T05:01:09;25.45;;;6.15;;
76636;SDS011;65532;52.124;5.480;2023-02-11T05:03:38;19.50;;;5.80;;
76636;SDS011;65532;52.124;5.480;2023-02-11T05:06:05;15.55;;;6.07;;
76636;SDS011;65532;52.124;5.480;2023-02-11T05:08:32;13.63;;;4.80;;
76636;SDS011;65532;52.124;5.480;2023-02-11T05:10:58;16.83;;;6.38;;
76636;SDS011;65532;52.124;5.480;2023-02-11T05:13:27;17.05;;;6.93;;
76636;SDS011;65532;52.124;5.480;2023-02-11T05:15:54;10.65;;;4.43;;
76636;SDS011;65532;52.124;5.480;2023-02-11T05:18:21;14.65;;;5.70;;
76636;SDS011;65532;52.124;5.480;2023-02-11T05:20:48;22.77;;;6.35;;
76636;SDS011;65532;52.124;5.480;2023-02-11T05:23:14;15.25;;;6.15;;
76636;SDS011;65532;52.124;5.480;2023-02-11T05:25:40;18.67;;;7.78;;
76636;SDS011;65532;52.124;5.480;2023-02-11T05:28:07;14.68;;;5.75;;
76636;SDS011;65532;52.124;5.480;2023-02-11T05:30:33;14.88;;;5.30;;
76636;SDS011;65532;52.124;5.480;2023-02-11T05:33:00;24.48;;;5.97;;
76636;SDS011;65532;52.124;5.480;2023-02-11T05:35:27;16.02;;;5.00;;
76636;SDS011;65532;52.124;5.480;2023-02-11T05:37:53;18.02;;;7.22;;
76636;SDS011;65532;52.124;5.480;2023-02-11T05:40:19;20.55;;;7.28;;
76636;SDS011;65532;52.124;5.480;2023-02-11T05:42:46;11.93;;;4.80;;
76636;SDS011;65532;52.124;5.480;2023-02-11T05:45:12;13.63;;;5.03;;
76636;SDS011;65532;52.124;5.480;2023-02-11T05:47:39;15.20;;;6.85;;
76636;SDS011;65532;52.124;5.480;2023-02-11T05:50:05;16.98;;;5.85;;
76636;SDS011;65532;52.124;5.480;2023-02-11T05:52:32;18.98;;;6.55;;
76636;SDS011;65532;52.124;5.480;2023-02-11T05:54:59;17.35;;;7.28;;
76636;SDS011;65532;52.124;5.480;2023-02-11T05:57:25;22.60;;;6.35;;
76636;SDS011;65532;52.124;5.480;2023-02-11T05:59:51;12.75;;;5.22;;
76636;SDS011;65532;52.124;5.480;2023-02-11T06:02:18;21.75;;;6.35;;
76636;SDS011;65532;52.124;5.480;2023-02-11T06:04:44;18.60;;;6.85;;
76636;SDS011;65532;52.124;5.480;2023-02-11T06:07:11;24.83;;;6.60;;
76636;SDS011;65532;52.124;5.480;2023-02-11T06:09:37;22.30;;;6.53;;
76636;SDS011;65532;52.124;5.480;2023-02-11T06:12:04;21.77;;;6.63;;
76636;SDS011;65532;52.124;5.480;2023-02-11T06:14:31;17.90;;;7.25;;
76636;SDS011;65532;52.124;5.480;2023-02-11T06:16:59;20.52;;;8.20;;
76636;SDS011;65532;52.124;5.480;2023-02-11T06:19:26;23.55;;;6.85;;
76636;SDS011;65532;52.124;5.480;2023-02-11T06:21:54;15.25;;;5.82;;
76636;SDS011;65532;52.124;5.480;2023-02-11T06:24:21;13.98;;;5.88;;
76636;SDS011;65532;52.124;5.480;2023-02-11T06:27:08;18.90;;;7.57;;
76636;SDS011;65532;52.124;5.480;2023-02-11T06:29:34;24.38;;;7.40;;
76636;SDS011;65532;52.124;5.480;2023-02-11T06:32:01;19.42;;;6.25;;
76636;SDS011;65532;52.124;5.480;2023-02-11T06:34:27;20.20;;;6.75;;
76636;SDS011;65532;52.124;5.480;2023-02-11T06:36:54;22.25;;;8.20;;
76636;SDS011;65532;52.124;5.480;2023-02-11T06:39:20;21.52;;;10.32;;
76636;SDS011;65532;52.124;5.480;2023-02-11T06:41:47;19.10;;;7.90;;
76636;SDS011;65532;52.124;5.480;2023-02-11T06:44:13;18.52;;;6.72;;
76636;SDS011;65532;52.124;5.480;2023-02-11T06:46:40;19.92;;;8.18;;
76636;SDS011;65532;52.124;5.480;2023-02-11T06:49:06;24.85;;;8.25;;
76636;SDS011;65532;52.124;5.480;2023-02-11T06:51:33;29.17;;;7.60;;
76636;SDS011;65532;52.124;5.480;2023-02-11T06:53:59;23.77;;;7.85;;
76636;SDS011;65532;52.124;5.480;2023-02-11T06:56:25;15.40;;;7.20;;
76636;SDS011;65532;52.124;5.480;2023-02-11T06:58:53;15.10;;;7.10;;
76636;SDS011;65532;52.124;5.480;2023-02-11T07:01:23;15.98;;;6.80;;
76636;SDS011;65532;52.124;5.480;2023-02-11T07:03:51;21.25;;;8.48;;
76636;SDS011;65532;52.124;5.480;2023-02-11T07:06:18;25.63;;;8.85;;
76636;SDS011;65532;52.124;5.480;2023-02-11T07:08:47;24.10;;;7.82;;
76636;SDS011;65532;52.124;5.480;2023-02-11T07:11:15;22.55;;;7.50;;
76636;SDS011;65532;52.124;5.480;2023-02-11T07:13:50;17.40;;;6.53;;
76636;SDS011;65532;52.124;5.480;2023-02-11T07:16:18;22.90;;;8.20;;
76636;SDS011;65532;52.124;5.480;2023-02-11T07:18:45;18.83;;;7.50;;
76636;SDS011;65532;52.124;5.480;2023-02-11T07:21:14;16.48;;;7.38;;
76636;SDS011;65532;52.124;5.480;2023-02-11T07:23:43;18.70;;;6.35;;
76636;SDS011;65532;52.124;5.480;2023-02-11T07:26:11;22.30;;;6.88;;
76636;SDS011;65532;52.124;5.480;2023-02-11T07:28:40;19.58;;;7.90;;
76636;SDS011;65532;52.124;5.480;2023-02-11T07:34:02;25.77;;;8.82;;
76636;SDS011;65532;52.124;5.480;2023-02-11T07:36:29;22.00;;;9.05;;
76636;SDS011;65532;52.124;5.480;2023-02-11T07:38:57;19.67;;;9.35;;
76636;SDS011;65532;52.124;5.480;2023-02-11T07:41:25;18.77;;;8.90;;
76636;SDS011;65532;52.124;5.480;2023-02-11T07:43:52;18.70;;;7.75;;
76636;SDS011;65532;52.124;5.480;2023-02-11T07:46:22;20.17;;;9.40;;
76636;SDS011;65532;52.124;5.480;2023-02-11T07:48:51;20.80;;;9.15;;
76636;SDS011;65532;52.124;5.480;2023-02-11T07:51:19;19.63;;;8.05;;
76636;SDS011;65532;52.124;5.480;2023-02-11T07:53:47;19.45;;;7.95;;
76636;SDS011;65532;52.124;5.480;2023-02-11T07:56:15;21.20;;;7.35;;
76636;SDS011;65532;52.124;5.480;2023-02-11T07:58:42;27.80;;;8.30;;
76636;SDS011;65532;52.124;5.480;2023-02-11T08:01:14;21.58;;;10.38;;
76636;SDS011;65532;52.124;5.480;2023-02-11T08:03:47;24.10;;;8.93;;
76636;SDS011;65532;52.124;5.480;2023-02-11T08:06:14;18.45;;;6.63;;
76636;SDS011;65532;52.124;5.480;2023-02-11T08:08:42;23.35;;;8.15;;
76636;SDS011;65532;52.124;5.480;2023-02-11T08:11:13;19.15;;;8.48;;
76636;SDS011;65532;52.124;5.480;2023-02-11T08:13:41;22.58;;;10.00;;
76636;SDS011;65532;52.124;5.480;2023-02-11T08:16:08;19.00;;;6.50;;
76636;SDS011;65532;52.124;5.480;2023-02-11T08:18:42;23.63;;;9.10;;
76636;SDS011;65532;52.124;5.480;2023-02-11T08:21:08;23.80;;;9.23;;
76636;SDS011;65532;52.124;5.480;2023-02-11T08:23:36;21.80;;;7.85;;
76636;SDS011;65532;52.124;5.480;2023-02-11T08:26:05;26.40;;;10.32;;
76636;SDS011;65532;52.124;5.480;2023-02-11T08:28:34;18.55;;;8.38;;
76636;SDS011;65532;52.124;5.480;2023-02-11T08:31:05;19.48;;;8.90;;
76636;SDS011;65532;52.124;5.480;2023-02-11T08:33:33;24.48;;;10.60;;
76636;SDS011;65532;52.124;5.480;2023-02-11T08:36:00;23.33;;;10.90;;
76636;SDS011;65532;52.124;5.480;2023-02-11T08:38:28;26.48;;;8.50;;
76636;SDS011;65532;52.124;5.480;2023-02-11T08:40:54;28.13;;;9.32;;
76636;SDS011;65532;52.124;5.480;2023-02-11T08:43:21;23.35;;;8.93;;
76636;SDS011;65532;52.124;5.480;2023-02-11T08:45:48;24.17;;;7.22;;
76636;SDS011;65532;52.124;5.480;2023-02-11T08:48:15;22.30;;;9.20;;
76636;SDS011;65532;52.124;5.480;2023-02-11T08:50:42;25.83;;;8.63;;
76636;SDS011;65532;52.124;5.480;2023-02-11T08:53:08;18.08;;;7.82;;
76636;SDS011;65532;52.124;5.480;2023-02-11T08:55:35;19.77;;;9.95;;
76636;SDS011;65532;52.124;5.480;2023-02-11T08:58:01;21.77;;;9.20;;
76636;SDS011;65532;52.124;5.480;2023-02-11T09:00:28;22.02;;;9.43;;
76636;SDS011;65532;52.124;5.480;2023-02-11T09:02:55;22.92;;;8.57;;
76636;SDS011;65532;52.124;5.480;2023-02-11T09:05:21;25.67;;;11.98;;
76636;SDS011;65532;52.124;5.480;2023-02-11T09:07:48;22.23;;;8.80;;
76636;SDS011;65532;52.124;5.480;2023-02-11T09:10:14;23.38;;;9.13;;
76636;SDS011;65532;52.124;5.480;2023-02-11T09:12:41;22.75;;;8.30;;
76636;SDS011;65532;52.124;5.480;2023-02-11T09:15:07;15.65;;;8.40;;
76636;SDS011;65532;52.124;5.480;2023-02-11T09:17:34;23.25;;;8.35;;
76636;SDS011;65532;52.124;5.480;2023-02-11T09:20:00;26.98;;;10.10;;
76636;SDS011;65532;52.124;5.480;2023-02-11T09:22:27;19.77;;;8.98;;
76636;SDS011;65532;52.124;5.480;2023-02-11T09:24:53;19.35;;;8.10;;
76636;SDS011;65532;52.124;5.480;2023-02-11T09:27:20;17.10;;;8.75;;
76636;SDS011;65532;52.124;5.480;2023-02-11T09:29:46;25.35;;;7.75;;
76636;SDS011;65532;52.124;5.480;2023-02-11T09:32:13;18.98;;;7.03;;
76636;SDS011;65532;52.124;5.480;2023-02-11T09:34:39;21.98;;;10.35;;
76636;SDS011;65532;52.124;5.480;2023-02-11T09:37:06;20.05;;;8.02;;
76636;SDS011;65532;52.124;5.480;2023-02-11T09:39:32;22.02;;;8.13;;
76636;SDS011;65532;52.124;5.480;2023-02-11T09:44:37;23.48;;;9.73;;
76636;SDS011;65532;52.124;5.480;2023-02-11T09:47:05;22.10;;;9.18;;
76636;SDS011;65532;52.124;5.480;2023-02-11T09:49:48;19.95;;;8.25;;
76636;SDS011;65532;52.124;5.480;2023-02-11T09:52:31;19.25;;;9.25;;
76636;SDS011;65532;52.124;5.480;2023-02-11T09:55:20;16.70;;;8.18;;
76636;SDS011;65532;52.124;5.480;2023-02-11T09:57:53;20.88;;;9.35;;
76636;SDS011;65532;52.124;5.480;2023-02-11T10:05:50;17.77;;;7.28;;
76636;SDS011;65532;52.124;5.480;2023-02-11T10:08:31;16.40;;;6.95;;
76636;SDS011;65532;52.124;5.480;2023-02-11T10:11:05;15.00;;;6.20;;
76636;SDS011;65532;52.124;5.480;2023-02-11T10:14:11;16.13;;;9.15;;
76636;SDS011;65532;52.124;5.480;2023-02-11T10:19:38;20.05;;;8.13;;
76636;SDS011;65532;52.124;5.480;2023-02-11T10:22:09;14.70;;;7.25;;
76636;SDS011;65532;52.124;5.480;2023-02-11T10:24:49;21.73;;;9.00;;
76636;SDS011;65532;52.124;5.480;2023-02-11T10:27:20;18.58;;;8.52;;
76636;SDS011;65532;52.124;5.480;2023-02-11T10:30:04;19.42;;;6.55;;
76636;SDS011;65532;52.124;5.480;2023-02-11T10:35:29;15.60;;;6.30;;
76636;SDS011;65532;52.124;5.480;2023-02-11T10:37:57;14.95;;;5.72;;
76636;SDS011;65532;52.124;5.480;2023-02-11T10:40:25;14.18;;;6.43;;
76636;SDS011;65532;52.124;5.480;2023-02-11T10:42:55;14.35;;;6.53;;
76636;SDS011;65532;52.124;5.480;2023-02-11T10:48:34;13.48;;;5.95;;
76636;SDS011;65532;52.124;5.480;2023-02-11T10:51:18;11.02;;;5.85;;
76636;SDS011;65532;52.124;5.480;2023-02-11T10:53:45;13.75;;;4.78;;
76636;SDS011;65532;52.124;5.480;2023-02-11T10:56:22;10.80;;;5.50;;
76636;SDS011;65532;52.124;5.480;2023-02-11T11:01:39;10.52;;;4.57;;
76636;SDS011;65532;52.124;5.480;2023-02-11T11:04:21;11.70;;;5.20;;
76636;SDS011;65532;52.124;5.480;2023-02-11T11:17:44;11.35;;;5.65;;
76636;SDS011;65532;52.124;5.480;2023-02-11T11:20:17;9.90;;;4.63;;
76636;SDS011;65532;52.124;5.480;2023-02-11T11:22:46;10.90;;;4.15;;
76636;SDS011;65532;52.124;5.480;2023-02-11T11:25:27;11.88;;;5.78;;
76636;SDS011;65532;52.124;5.480;2023-02-11T11:27:56;11.27;;;6.20;;
76636;SDS011;65532;52.124;5.480;2023-02-11T11:30:32;13.45;;;5.03;;
76636;SDS011;65532;52.124;5.480;2023-02-11T11:33:04;9.63;;;4.93;;
76636;SDS011;65532;52.124;5.480;2023-02-11T11:35:44;14.77;;;6.18;;
76636;SDS011;65532;52.124;5.480;2023-02-11T11:38:22;14.18;;;4.25;;
76636;SDS011;65532;52.124;5.480;2023-02-11T11:41:11;9.90;;;5.72;;
76636;SDS011;65532;52.124;5.480;2023-02-11T11:43:57;13.93;;;4.03;;
76636;SDS011;65532;52.124;5.480;2023-02-11T11:46:46;9.13;;;5.03;;
76636;SDS011;65532;52.124;5.480;2023-02-11T11:54:39;10.35;;;2.90;;
76636;SDS011;65532;52.124;5.480;2023-02-11T11:57:11;11.60;;;3.97;;
76636;SDS011;65532;52.124;5.480;2023-02-11T11:59:43;10.75;;;3.88;;
76636;SDS011;65532;52.124;5.480;2023-02-11T12:02:16;12.38;;;4.75;;
76636;SDS011;65532;52.124;5.480;2023-02-11T12:08:14;8.40;;;3.70;;
76636;SDS011;65532;52.124;5.480;2023-02-11T12:14:05;9.38;;;3.83;;
76636;SDS011;65532;52.124;5.480;2023-02-11T12:19:34;8.63;;;4.13;;
76636;SDS011;65532;52.124;5.480;2023-02-11T12:25:28;8.70;;;3.25;;
76636;SDS011;65532;52.124;5.480;2023-02-11T12:30:44;7.97;;;4.43;;
76636;SDS011;65532;52.124;5.480;2023-02-11T12:35:45;6.50;;;4.10;;
76636;SDS011;65532;52.124;5.480;2023-02-11T12:41:12;6.15;;;2.25;;
76636;SDS011;65532;52.124;5.480;2023-02-11T12:44:24;5.78;;;2.95;;
76636;SDS011;65532;52.124;5.480;2023-02-11T12:50:23;6.57;;;2.67;;
76636;SDS011;65532;52.124;5.480;2023-02-11T12:55:25;4.22;;;1.67;;
76636;SDS011;65532;52.124;5.480;2023-02-11T12:57:55;6.10;;;1.98;;
76636;SDS011;65532;52.124;5.480;2023-02-11T13:03:24;5.95;;;2.75;;
76636;SDS011;65532;52.124;5.480;2023-02-11T13:05:59;7.35;;;3.38;;
76636;SDS011;65532;52.124;5.480;2023-02-11T13:08:31;6.45;;;2.70;;
76636;SDS011;65532;52.124;5.480;2023-02-11T13:11:01;5.85;;;2.58;;
76636;SDS011;65532;52.124;5.480;2023-02-11T13:18:56;7.30;;;3.40;;
76636;SDS011;65532;52.124;5.480;2023-02-11T13:30:30;5.80;;;2.42;;
76636;SDS011;65532;52.124;5.480;2023-02-11T13:35:37;8.65;;;3.67;;
76636;SDS011;65532;52.124;5.480;2023-02-11T13:38:23;12.10;;;5.70;;
76636;SDS011;65532;52.124;5.480;2023-02-11T13:40:59;9.23;;;5.43;;
76636;SDS011;65532;52.124;5.480;2023-02-11T13:43:30;5.43;;;2.65;;
76636;SDS011;65532;52.124;5.480;2023-02-11T13:45:59;8.23;;;2.47;;
76636;SDS011;65532;52.124;5.480;2023-02-11T13:48:32;8.35;;;3.70;;
76636;SDS011;65532;52.124;5.480;2023-02-11T13:51:05;6.55;;;2.90;;
76636;SDS011;65532;52.124;5.480;2023-02-11T13:53:43;7.57;;;2.20;;
76636;SDS011;65532;52.124;5.480;2023-02-11T13:58:55;7.90;;;3.40;;
76636;SDS011;65532;52.124;5.480;2023-02-11T14:05:11;7.85;;;3.78;;
76636;SDS011;65532;52.124;5.480;2023-02-11T14:10:56;8.23;;;1.95;;
76636;SDS011;65532;52.124;5.480;2023-02-11T14:16:13;8.32;;;3.72;;
76636;SDS011;65532;52.124;5.480;2023-02-11T14:29:13;6.53;;;3.85;;
76636;SDS011;65532;52.124;5.480;2023-02-11T14:43:05;6.72;;;2.42;;
76636;SDS011;65532;52.124;5.480;2023-02-11T14:45:38;7.90;;;2.90;;
76636;SDS011;65532;52.124;5.480;2023-02-11T14:48:14;6.20;;;2.30;;
76636;SDS011;65532;52.124;5.480;2023-02-11T14:53:21;6.32;;;2.78;;
76636;SDS011;65532;52.124;5.480;2023-02-11T14:55:50;7.20;;;3.80;;
76636;SDS011;65532;52.124;5.480;2023-02-11T14:58:19;8.35;;;3.60;;
76636;SDS011;65532;52.124;5.480;2023-02-11T15:00:54;9.35;;;2.95;;
76636;SDS011;65532;52.124;5.480;2023-02-11T15:08:27;7.57;;;2.50;;
76636;SDS011;65532;52.124;5.480;2023-02-11T15:10:55;6.90;;;3.13;;
76636;SDS011;65532;52.124;5.480;2023-02-11T15:13:23;7.43;;;3.08;;
76636;SDS011;65532;52.124;5.480;2023-02-11T15:15:53;9.23;;;3.38;;
76636;SDS011;65532;52.124;5.480;2023-02-11T15:18:23;5.90;;;2.35;;
76636;SDS011;65532;52.124;5.480;2023-02-11T15:20:56;8.43;;;3.30;;
76636;SDS011;65532;52.124;5.480;2023-02-11T15:23:23;10.35;;;3.97;;
76636;SDS011;65532;52.124;5.480;2023-02-11T15:25:51;5.47;;;2.72;;
76636;SDS011;65532;52.124;5.480;2023-02-11T15:28:22;8.88;;;3.95;;
76636;SDS011;65532;52.124;5.480;2023-02-11T15:31:02;6.93;;;2.53;;
76636;SDS011;65532;52.124;5.480;2023-02-11T15:33:31;7.35;;;3.35;;
76636;SDS011;65532;52.124;5.480;2023-02-11T15:35:59;5.82;;;2.42;;
76636;SDS011;65532;52.124;5.480;2023-02-11T15:38:27;5.68;;;1.95;;
76636;SDS011;65532;52.124;5.480;2023-02-11T15:40:56;6.88;;;2.33;;
76636;SDS011;65532;52.124;5.480;2023-02-11T15:43:23;9.98;;;5.55;;
76636;SDS011;65532;52.124;5.480;2023-02-11T15:48:23;8.82;;;4.25;;
76636;SDS011;65532;52.124;5.480;2023-02-11T15:50:59;9.90;;;4.10;;
76636;SDS011;65532;52.124;5.480;2023-02-11T15:53:31;7.50;;;2.33;;
76636;SDS011;65532;52.124;5.480;2023-02-11T15:58:43;8.88;;;3.92;;
76636;SDS011;65532;52.124;5.480;2023-02-11T16:01:12;6.80;;;2.55;;
76636;SDS011;65532;52.124;5.480;2023-02-11T16:03:39;7.63;;;2.78;;
76636;SDS011;65532;52.124;5.480;2023-02-11T16:06:33;6.82;;;2.40;;
76636;SDS011;65532;52.124;5.480;2023-02-11T16:11:34;9.85;;;2.92;;
76636;SDS011;65532;52.124;5.480;2023-02-11T16:16:53;6.82;;;3.60;;
76636;SDS011;65532;52.124;5.480;2023-02-11T16:19:23;6.82;;;2.38;;
76636;SDS011;65532;52.124;5.480;2023-02-11T16:21:52;8.57;;;2.28;;
76636;SDS011;65532;52.124;5.480;2023-02-11T16:24:24;8.93;;;2.85;;
76636;SDS011;65532;52.124;5.480;2023-02-11T16:26:54;8.38;;;2.33;;
76636;SDS011;65532;52.124;5.480;2023-02-11T16:29:27;7.95;;;2.58;;
76636;SDS011;65532;52.124;5.480;2023-02-11T16:32:09;9.32;;;2.13;;
76636;SDS011;65532;52.124;5.480;2023-02-11T16:34:41;8.45;;;3.40;;
76636;SDS011;65532;52.124;5.480;2023-02-11T16:37:08;9.57;;;2.35;;
76636;SDS011;65532;52.124;5.480;2023-02-11T16:39:35;6.65;;;3.25;;
76636;SDS011;65532;52.124;5.480;2023-02-11T16:42:01;11.02;;;4.05;;
76636;SDS011;65532;52.124;5.480;2023-02-11T16:44:32;7.60;;;3.00;;
76636;SDS011;65532;52.124;5.480;2023-02-11T16:46:59;6.22;;;2.38;;
76636;SDS011;65532;52.124;5.480;2023-02-11T16:49:29;6.50;;;3.15;;
76636;SDS011;65532;52.124;5.480;2023-02-11T16:51:58;8.07;;;3.22;;
76636;SDS011;65532;52.124;5.480;2023-02-11T16:54:29;8.75;;;3.65;;
76636;SDS011;65532;52.124;5.480;2023-02-11T16:56:55;5.55;;;2.55;;
76636;SDS011;65532;52.124;5.480;2023-02-11T16:59:22;8.02;;;4.05;;
76636;SDS011;65532;52.124;5.480;2023-02-11T17:01:49;8.38;;;2.75;;
76636;SDS011;65532;52.124;5.480;2023-02-11T17:06:46;6.70;;;3.55;;
76636;SDS011;65532;52.124;5.480;2023-02-11T17:09:16;7.82;;;2.53;;
76636;SDS011;65532;52.124;5.480;2023-02-11T17:11:45;8.13;;;3.97;;
76636;SDS011;65532;52.124;5.480;2023-02-11T17:14:11;7.97;;;2.55;;
76636;SDS011;65532;52.124;5.480;2023-02-11T17:16:38;5.35;;;2.78;;
76636;SDS011;65532;52.124;5.480;2023-02-11T17:19:05;10.77;;;5.40;;
76636;SDS011;65532;52.124;5.480;2023-02-11T17:21:31;8.13;;;2.58;;
76636;SDS011;65532;52.124;5.480;2023-02-11T17:23:58;6.43;;;2.75;;
76636;SDS011;65532;52.124;5.480;2023-02-11T17:26:24;6.18;;;3.10;;
76636;SDS011;65532;52.124;5.480;2023-02-11T17:28:51;7.95;;;3.75;;
76636;SDS011;65532;52.124;5.480;2023-02-11T17:31:17;10.63;;;3.50;;
76636;SDS011;65532;52.124;5.480;2023-02-11T17:33:44;12.57;;;3.00;;
76636;SDS011;65532;52.124;5.480;2023-02-11T17:36:11;7.68;;;2.63;;
76636;SDS011;65532;52.124;5.480;2023-02-11T17:38:37;6.63;;;3.35;;
76636;SDS011;65532;52.124;5.480;2023-02-11T17:41:04;6.60;;;3.28;;
76636;SDS011;65532;52.124;5.480;2023-02-11T17:43:30;8.32;;;3.38;;
76636;SDS011;65532;52.124;5.480;2023-02-11T17:45:57;7.25;;;3.53;;
76636;SDS011;65532;52.124;5.480;2023-02-11T17:48:23;8.98;;;2.53;;
76636;SDS011;65532;52.124;5.480;2023-02-11T17:50:50;5.97;;;3.25;;
76636;SDS011;65532;52.124;5.480;2023-02-11T17:53:16;8.52;;;2.75;;
76636;SDS011;65532;52.124;5.480;2023-02-11T17:55:43;7.10;;;2.92;;
76636;SDS011;65532;52.124;5.480;2023-02-11T17:58:09;9.65;;;3.40;;
76636;SDS011;65532;52.124;5.480;2023-02-11T18:00:35;8.15;;;3.42;;
76636;SDS011;65532;52.124;5.480;2023-02-11T18:03:02;9.02;;;3.42;;